Time;durP1;ratioP1;P1;durP2;ratioP2;P2;SDS_P1;SDS_P2;PMS_P1;PMS_P2;Temp;Humidity;BMP_temperature;BMP_pressure;BME280_temperature;BME280_humidity;BME280_pressure;Samples;Min_cycle;Max_cycle;Signal;HPM_P1;HPM_P2
2021/12/07 00:02:09;;;;;;;;;10.25;10.00;;;;;15.69;46.67;97967.72;4872553;28;109996;-85
2021/12/07 00:04:38;;;;;;;;;9.00;9.00;;;;;15.68;46.65;97960.59;4869276;28;102785;-85
2021/12/07 00:07:05;;;;;;;;;10.50;9.00;;;;;15.66;46.81;97963.59;4868189;28;102507;-85
2021/12/07 00:09:32;;;;;;;;;12.50;10.75;;;;;15.63;46.83;97964.06;4872554;28;103579;-85
2021/12/07 00:12:03;;;;;;;;;9.75;9.00;;;;;15.63;46.79;97972.25;4865001;28;104052;-84
2021/12/07 00:14:37;;;;;;;;;13.00;10.00;;;;;15.61;46.54;97966.25;4901301;28;102236;-85
2021/12/07 00:17:04;;;;;;;;;10.25;8.00;;;;;15.60;46.73;97961.84;4909781;28;102295;-85
2021/12/07 00:19:32;;;;;;;;;13.50;11.75;;;;;15.59;46.98;97971.94;4904491;28;104256;-85
2021/12/07 00:21:59;;;;;;;;;14.75;11.00;;;;;15.58;46.81;97991.25;4883155;28;104660;-84
2021/12/07 00:24:29;;;;;;;;;10.50;9.75;;;;;15.57;46.81;97990.44;4898019;28;102672;-85
2021/12/07 00:26:56;;;;;;;;;10.25;8.75;;;;;15.55;46.74;97986.31;4908141;28;102465;-85
2021/12/07 00:29:23;;;;;;;;;14.00;9.75;;;;;15.56;46.77;97996.13;4908062;28;103903;-85
2021/12/07 00:31:55;;;;;;;;;13.50;9.25;;;;;15.55;46.79;97986.31;4909550;28;102471;-85
2021/12/07 00:36:54;;;;;;;;;10.00;10.00;;;;;15.52;46.51;97987.63;4888324;28;102829;-85
2021/12/07 00:39:22;;;;;;;;;10.25;9.25;;;;;15.52;47.24;97981.34;4908902;28;104205;-85
2021/12/07 00:41:50;;;;;;;;;10.00;9.00;;;;;15.51;46.88;97985.97;4914768;28;102762;-85
2021/12/07 00:44:17;;;;;;;;;11.75;9.50;;;;;15.48;46.97;97982.91;4913607;28;102254;-85
2021/12/07 00:46:44;;;;;;;;;10.75;9.75;;;;;15.46;46.95;97976.84;4929283;28;102484;-85
2021/12/07 00:49:12;;;;;;;;;11.00;10.00;;;;;15.46;46.88;97987.75;4893042;28;104099;-85
2021/12/07 00:51:39;;;;;;;;;8.00;7.75;;;;;15.44;46.57;97995.38;4902402;28;110732;-85
2021/12/07 00:54:06;;;;;;;;;10.75;9.75;;;;;15.44;46.64;97989.91;4885339;28;102246;-85
2021/12/07 00:56:33;;;;;;;;;9.00;9.00;;;;;15.43;46.93;97988.25;4893140;28;102763;-85
2021/12/07 00:59:00;;;;;;;;;10.25;9.50;;;;;15.42;46.84;97986.59;4890971;28;106146;-85
2021/12/07 01:01:28;;;;;;;;;15.00;11.50;;;;;15.42;46.66;97981.16;4895955;28;104971;-85
2021/12/07 01:03:55;;;;;;;;;7.00;7.00;;;;;15.41;46.99;97979.50;4871937;28;104147;-85
2021/12/07 01:06:45;;;;;;;;;9.50;8.25;;;;;15.40;46.88;97983.31;4874544;28;102565;-85
2021/12/07 01:09:26;;;;;;;;;8.25;7.50;;;;;15.39;46.82;97978.94;4906324;28;108668;-85
2021/12/07 01:25:47;;;;;;;;;10.25;7.50;;;;;15.30;46.77;97966.78;4904665;28;102615;-85
2021/12/07 01:31:11;;;;;;;;;11.25;10.00;;;;;15.28;46.67;97958.03;4914362;28;104088;-85
2021/12/07 01:33:58;;;;;;;;;14.75;12.00;;;;;15.26;46.76;97960.19;4891477;28;102201;-85
2021/12/07 01:37:03;;;;;;;;;9.00;7.75;;;;;15.25;46.68;97953.06;4890148;28;102820;-85
2021/12/07 01:50:46;;;;;;;;;9.75;9.00;;;;;15.21;46.78;97950.03;4885909;28;102418;-85
2021/12/07 02:01:35;;;;;;;;;11.50;7.50;;;;;15.14;46.84;97952.91;4875065;28;102705;-84
2021/12/07 02:04:03;;;;;;;;;8.50;8.00;;;;;15.12;46.74;97949.63;4870318;28;104181;-85
2021/12/07 02:06:30;;;;;;;;;7.00;6.25;;;;;15.11;47.09;97947.94;4853053;28;103509;-85
2021/12/07 02:08:57;;;;;;;;;8.75;7.00;;;;;15.11;47.04;97955.28;4864488;28;103672;-85
2021/12/07 02:11:24;;;;;;;;;9.50;9.00;;;;;15.10;46.61;97948.19;4858357;28;104109;-85
2021/12/07 02:16:25;;;;;;;;;10.00;8.00;;;;;15.08;46.55;97934.00;4866020;28;105849;-85
2021/12/07 02:18:52;;;;;;;;;9.25;8.00;;;;;15.07;46.76;97938.63;4850111;28;102754;-85
2021/12/07 02:21:22;;;;;;;;;9.50;9.00;;;;;15.07;46.86;97935.91;4878560;28;102700;-85
2021/12/07 02:23:49;;;;;;;;;9.50;9.50;;;;;15.05;46.76;97932.59;4868968;28;105930;-85
2021/12/07 02:26:16;;;;;;;;;8.50;8.25;;;;;15.05;47.02;97926.31;4846290;28;102725;-85
2021/12/07 02:28:44;;;;;;;;;8.25;7.25;;;;;15.04;47.02;97925.47;4865373;28;102750;-84
2021/12/07 02:31:12;;;;;;;;;10.75;8.75;;;;;15.04;46.99;97919.25;4848610;28;102384;-85
2021/12/07 02:33:40;;;;;;;;;8.50;7.75;;;;;15.03;46.72;97923.84;4849555;28;104404;-84
2021/12/07 02:36:07;;;;;;;;;9.00;6.75;;;;;15.02;47.01;97919.47;4831926;28;103089;-84
2021/12/07 02:38:35;;;;;;;;;7.50;7.50;;;;;15.01;46.82;97925.97;4863685;28;102739;-84
2021/12/07 02:41:02;;;;;;;;;10.25;8.00;;;;;15.01;46.84;97925.97;4847947;28;102623;-85
2021/12/07 02:43:29;;;;;;;;;10.00;8.00;;;;;15.00;46.98;97928.94;4862464;28;109247;-85
2021/12/07 02:45:57;;;;;;;;;7.75;7.50;;;;;14.99;46.97;97919.97;4878375;28;102339;-85
2021/12/07 02:48:24;;;;;;;;;9.25;8.00;;;;;14.98;47.09;97915.59;4854626;28;103869;-85
2021/12/07 02:50:51;;;;;;;;;7.00;6.25;;;;;14.98;46.83;97922.94;4859358;28;102637;-85
2021/12/07 02:53:22;;;;;;;;;9.00;8.75;;;;;14.95;46.76;97923.44;4881252;28;105447;-85
2021/12/07 02:55:50;;;;;;;;;9.75;7.00;;;;;14.96;46.92;97927.78;4867869;28;102489;-85
2021/12/07 02:58:18;;;;;;;;;13.50;9.75;;;;;14.94;47.41;97930.78;4847969;28;102533;-85
2021/12/07 03:00:53;;;;;;;;;8.50;7.00;;;;;14.93;46.63;97933.72;4873629;28;102628;-85
2021/12/07 03:03:21;;;;;;;;;8.50;7.00;;;;;14.93;46.99;97933.72;4874072;28;104205;-84
2021/12/07 03:06:00;;;;;;;;;9.75;8.25;;;;;14.93;46.73;97942.72;4869378;28;102755;-84
2021/12/07 03:27:53;;;;;;;;;7.50;6.75;;;;;14.85;46.81;97940.41;4885296;28;102754;-85
2021/12/07 03:30:20;;;;;;;;;1.75;1.75;;;;;14.84;46.80;97941.47;4875685;28;102891;-85
2021/12/07 03:32:48;;;;;;;;;6.25;6.00;;;;;14.83;46.94;97936.25;4894050;28;102548;-84
2021/12/07 03:35:15;;;;;;;;;7.75;7.75;;;;;14.82;46.86;97940.88;4870210;28;103979;-85
2021/12/07 03:37:42;;;;;;;;;7.50;7.00;;;;;14.82;46.82;97948.22;4877003;28;103613;-85
2021/12/07 03:40:10;;;;;;;;;8.75;7.00;;;;;14.81;46.96;97950.13;4897236;28;103868;-84
2021/12/07 03:42:37;;;;;;;;;8.00;7.50;;;;;14.80;46.73;97948.47;4882749;28;102443;-85
2021/12/07 03:45:05;;;;;;;;;6.00;6.00;;;;;14.81;46.94;97954.75;4895888;28;104323;-84
2021/12/07 03:47:32;;;;;;;;;9.00;7.25;;;;;14.80;46.39;97951.19;4900520;28;102557;-85
2021/12/07 03:49:59;;;;;;;;;7.75;6.50;;;;;14.78;46.85;97953.31;4878536;28;103864;-85
2021/12/07 03:52:26;;;;;;;;;9.00;8.00;;;;;14.79;46.39;97959.59;4873859;28;102589;-85
2021/12/07 03:54:53;;;;;;;;;8.75;7.00;;;;;14.78;46.54;97958.75;4886756;28;103948;-85
2021/12/07 03:57:20;;;;;;;;;9.25;7.00;;;;;14.76;46.92;97960.94;4881220;28;102466;-85
2021/12/07 03:59:47;;;;;;;;;9.00;7.25;;;;;14.78;46.90;97963.38;4888344;28;102599;-84
2021/12/07 04:02:14;;;;;;;;;10.00;7.75;;;;;14.76;46.92;97969.09;4889826;28;105279;-84
2021/12/07 04:04:42;;;;;;;;;7.25;6.50;;;;;14.76;46.80;97974.53;4881670;28;104219;-84
2021/12/07 04:07:09;;;;;;;;;8.00;7.00;;;;;14.75;46.42;97972.88;4889134;28;103009;-84
2021/12/07 04:09:36;;;;;;;;;8.25;7.75;;;;;14.75;46.41;97978.31;4887829;28;102098;-84
2021/12/07 04:12:03;;;;;;;;;9.00;8.25;;;;;14.74;47.04;97976.66;4894922;28;103132;-84
2021/12/07 04:14:30;;;;;;;;;6.25;6.25;;;;;14.74;47.09;97980.22;4890281;28;108207;-85
2021/12/07 04:16:57;;;;;;;;;8.75;7.00;;;;;14.72;46.75;97986.97;4912455;28;102448;-84
2021/12/07 04:19:24;;;;;;;;;11.00;8.25;;;;;14.71;46.55;97991.59;4910752;28;103409;-84
2021/12/07 04:21:51;;;;;;;;;6.75;6.75;;;;;14.70;46.82;97989.94;4883446;28;102676;-84
2021/12/07 04:24:18;;;;;;;;;8.50;7.25;;;;;14.69;46.95;97990.16;4903584;28;105800;-84
2021/12/07 04:26:45;;;;;;;;;7.00;7.00;;;;;14.70;47.05;97992.66;4890558;28;103746;-84
2021/12/07 04:29:12;;;;;;;;;10.25;8.25;;;;;14.68;46.98;97991.22;4896619;28;102896;-84
2021/12/07 04:31:39;;;;;;;;;9.25;8.00;;;;;14.69;46.75;97992.88;4913478;28;103822;-84
2021/12/07 04:34:06;;;;;;;;;9.00;8.00;;;;;14.68;46.96;97991.22;4897006;28;104176;-84
2021/12/07 04:36:33;;;;;;;;;8.25;7.00;;;;;14.68;46.60;97993.94;4894808;28;102732;-84
2021/12/07 04:39:00;;;;;;;;;8.75;8.00;;;;;14.65;46.90;97992.53;4871133;28;104363;-84
2021/12/07 04:41:32;;;;;;;;;9.25;7.75;;;;;14.68;46.57;97996.66;4908395;28;102612;-84
2021/12/07 04:44:00;;;;;;;;;10.00;7.75;;;;;14.68;46.94;97997.50;4896250;28;103985;-85
2021/12/07 04:46:45;;;;;;;;;7.00;7.00;;;;;14.66;46.57;97996.94;4893066;28;102646;-85
2021/12/07 04:49:49;;;;;;;;;9.25;7.50;;;;;14.66;47.01;98001.53;4905093;28;102220;-84
2021/12/07 05:00:13;;;;;;;;;9.50;8.75;;;;;14.62;46.60;97992.22;4910866;28;102489;-84
2021/12/07 05:02:44;;;;;;;;;9.25;8.25;;;;;14.61;46.90;97983.22;4883254;28;102670;-84
2021/12/07 05:05:13;;;;;;;;;7.75;6.00;;;;;14.61;47.05;97996.00;4883245;28;104265;-84
2021/12/07 05:07:47;;;;;;;;;8.50;8.00;;;;;14.61;46.62;97985.94;4886490;28;102811;-84
2021/12/07 05:13:21;;;;;;;;;9.50;8.00;;;;;14.60;47.10;97992.44;4907425;28;103519;-84
2021/12/07 05:40:08;;;;;;;;;14.25;12.25;;;;;14.74;50.37;97971.22;4897374;28;102554;-84
2021/12/07 05:42:36;;;;;;;;;19.00;15.50;;;;;14.75;50.50;97970.16;4910191;28;102689;-82
2021/12/07 05:45:04;;;;;;;;;16.25;12.50;;;;;14.78;50.91;97969.66;4915970;28;102410;-86
2021/12/07 05:47:34;;;;;;;;;19.00;14.50;;;;;14.79;51.21;97973.19;4906907;28;108975;-86
2021/12/07 05:50:01;;;;;;;;;14.50;13.00;;;;;14.82;50.87;97967.25;4895659;28;102521;-86
2021/12/07 05:52:28;;;;;;;;;12.75;11.50;;;;;14.84;51.15;97974.13;4914455;28;102493;-86
2021/12/07 05:54:55;;;;;;;;;16.00;15.75;;;;;14.87;50.55;97972.81;4924127;28;102354;-86
2021/12/07 05:57:22;;;;;;;;;14.75;12.25;;;;;14.89;50.82;97976.97;4913358;28;104123;-86
2021/12/07 05:59:49;;;;;;;;;14.50;11.75;;;;;14.91;50.56;97980.25;4895167;28;102250;-85
2021/12/07 06:02:16;;;;;;;;;16.75;15.00;;;;;14.92;50.78;97962.84;4919702;28;102339;-86
2021/12/07 06:04:43;;;;;;;;;15.50;14.50;;;;;14.96;50.44;97972.16;4908178;28;102562;-85
2021/12/07 06:07:10;;;;;;;;;19.00;14.00;;;;;14.97;50.75;97976.56;4907240;28;104127;-85
2021/12/07 06:09:37;;;;;;;;;15.25;14.00;;;;;14.99;50.87;97981.78;4918317;28;104342;-85
2021/12/07 06:12:05;;;;;;;;;15.50;13.25;;;;;15.02;50.29;97975.81;4903943;28;102700;-86
2021/12/07 06:14:36;;;;;;;;;15.00;13.50;;;;;15.03;50.36;97975.59;4909818;28;102717;-86
2021/12/07 06:17:03;;;;;;;;;17.25;13.50;;;;;15.05;50.34;97970.72;4917856;28;109399;-86
2021/12/07 06:19:30;;;;;;;;;13.50;13.00;;;;;15.07;50.61;97973.19;4891708;28;102757;-85
2021/12/07 06:21:57;;;;;;;;;14.00;11.50;;;;;15.08;50.45;97967.47;4903073;28;102075;-86
2021/12/07 06:24:24;;;;;;;;;15.00;13.00;;;;;15.10;50.30;97976.25;4927436;28;102366;-85
2021/12/07 06:26:51;;;;;;;;;20.25;14.50;;;;;15.12;50.61;97979.56;4918402;28;103964;-86
2021/12/07 06:29:18;;;;;;;;;15.25;13.25;;;;;15.13;50.19;97986.63;4920349;28;103521;-85
2021/12/07 06:31:45;;;;;;;;;19.25;15.00;;;;;15.15;49.98;97984.50;4883680;28;102963;-85
2021/12/07 06:34:12;;;;;;;;;14.25;11.50;;;;;15.19;50.13;97987.56;4893574;28;103000;-86
2021/12/07 06:36:39;;;;;;;;;14.25;12.00;;;;;15.21;50.30;97987.31;4913013;28;104062;-85
2021/12/07 06:39:07;;;;;;;;;14.50;10.00;;;;;15.23;50.16;97994.16;4919697;28;105728;-86
2021/12/07 06:41:34;;;;;;;;;15.25;14.25;;;;;15.26;50.34;97998.31;4887607;28;103562;-85
2021/12/07 06:44:50;;;;;;;;;14.00;13.50;;;;;15.27;50.15;97999.94;4893066;28;102536;-86
2021/12/07 06:47:17;;;;;;;;;15.00;11.75;;;;;15.29;50.10;98003.25;4900413;28;108871;-85
2021/12/07 06:49:45;;;;;;;;;17.75;14.50;;;;;15.30;50.03;98004.91;4915564;28;102704;-86
2021/12/07 06:52:12;;;;;;;;;17.50;13.00;;;;;15.32;49.93;98005.47;4911252;28;104135;-85
2021/12/07 06:54:39;;;;;;;;;16.00;11.75;;;;;15.33;50.23;98004.41;4894675;28;103845;-85
2021/12/07 06:57:06;;;;;;;;;13.50;12.75;;;;;15.35;49.82;98010.47;4928500;28;104078;-85
2021/12/07 06:59:33;;;;;;;;;14.00;12.75;;;;;15.35;49.95;98013.19;4917202;28;103572;-86
2021/12/07 07:02:00;;;;;;;;;17.00;15.00;;;;;15.37;49.96;98019.19;4908715;28;102404;-85
2021/12/07 07:04:28;;;;;;;;;14.00;13.00;;;;;15.39;49.83;98011.63;4929255;28;103469;-86
2021/12/07 07:06:55;;;;;;;;;15.25;14.00;;;;;15.40;49.73;98014.06;4911211;28;104210;-85
2021/12/07 07:09:22;;;;;;;;;18.50;13.25;;;;;15.42;49.83;98016.56;4915747;28;104151;-85
2021/12/07 07:11:49;;;;;;;;;14.25;12.75;;;;;15.43;49.80;98021.78;4927726;28;103654;-85
2021/12/07 07:14:16;;;;;;;;;12.50;12.00;;;;;15.46;49.60;98031.34;4920495;28;102631;-86
2021/12/07 07:16:43;;;;;;;;;13.25;10.25;;;;;15.46;49.42;98029.44;4910744;28;104061;-85
2021/12/07 07:19:10;;;;;;;;;14.75;12.50;;;;;15.46;49.74;98024.00;4926981;28;102527;-83
2021/12/07 07:21:37;;;;;;;;;14.00;12.00;;;;;15.49;49.54;98031.66;4917315;28;102583;-84
2021/12/07 07:24:05;;;;;;;;;15.75;14.00;;;;;15.51;49.37;98034.19;4887342;28;102963;-86
2021/12/07 07:26:32;;;;;;;;;14.00;12.00;;;;;15.52;49.49;98036.69;4903354;28;108956;-86
2021/12/07 07:28:59;;;;;;;;;14.50;11.75;;;;;15.53;49.41;98038.34;4893058;28;103459;-86
2021/12/07 07:31:26;;;;;;;;;14.50;12.75;;;;;15.56;49.29;98039.72;4904349;28;102733;-86
2021/12/07 07:33:54;;;;;;;;;18.75;13.50;;;;;15.56;49.41;98043.28;4914593;28;102585;-85
2021/12/07 07:36:22;;;;;;;;;15.75;13.25;;;;;15.59;49.06;98047.41;4899917;28;105748;-86
2021/12/07 07:38:49;;;;;;;;;16.00;13.00;;;;;15.61;49.05;98046.09;4908695;28;102551;-86
2021/12/07 07:41:16;;;;;;;;;15.25;12.50;;;;;15.65;48.83;98051.06;4924549;28;102611;-85
2021/12/07 07:43:43;;;;;;;;;15.00;12.00;;;;;15.66;48.93;98041.81;4917093;28;102278;-85
2021/12/07 07:46:10;;;;;;;;;14.25;12.75;;;;;15.68;49.00;98051.38;4915257;28;104218;-85
2021/12/07 07:48:37;;;;;;;;;12.25;11.00;;;;;15.70;49.16;98054.69;4923356;28;105603;-86
2021/12/07 07:51:04;;;;;;;;;10.75;9.00;;;;;15.72;48.51;98052.53;4894324;28;102797;-86
2021/12/07 07:53:31;;;;;;;;;12.00;10.75;;;;;15.75;49.00;98049.34;4890900;28;102713;-86
2021/12/07 07:55:58;;;;;;;;;15.75;12.75;;;;;15.77;48.46;98049.91;4913947;28;103700;-86
2021/12/07 07:58:25;;;;;;;;;13.00;11.25;;;;;15.81;48.96;98055.66;4922595;28;102585;-86
2021/12/07 08:00:52;;;;;;;;;15.00;12.75;;;;;15.82;48.46;98051.88;4900902;28;105292;-86
2021/12/07 08:03:19;;;;;;;;;10.50;10.00;;;;;15.84;48.31;98045.13;4902546;28;103762;-87
2021/12/07 08:05:46;;;;;;;;;15.00;15.00;;;;;15.87;48.54;98046.50;4909666;28;104057;-86
2021/12/07 08:08:13;;;;;;;;;14.50;11.00;;;;;15.88;48.09;98045.44;4878938;28;102605;-85
2021/12/07 08:10:41;;;;;;;;;11.00;10.50;;;;;15.90;48.70;98043.28;4880579;28;102955;-87
2021/12/07 08:13:08;;;;;;;;;16.75;14.00;;;;;15.92;48.46;98046.59;4904510;28;102633;-84
2021/12/07 08:15:42;;;;;;;;;16.50;13.25;;;;;15.93;48.30;98043.63;4894510;28;103696;-86
2021/12/07 08:18:10;;;;;;;;;14.75;11.00;;;;;15.94;48.25;98048.00;4904969;28;102851;-85
2021/12/07 08:20:38;;;;;;;;;15.25;11.75;;;;;15.96;48.17;98050.47;4911695;28;102648;-86
2021/12/07 08:23:05;;;;;;;;;14.75;12.25;;;;;15.97;48.35;98055.69;4908170;28;102636;-86
2021/12/07 08:25:33;;;;;;;;;9.25;9.00;;;;;15.98;48.08;98051.91;4902680;28;103982;-86
2021/12/07 08:28:01;;;;;;;;;16.00;12.75;;;;;15.99;48.43;98045.34;4908817;28;102540;-86
2021/12/07 08:30:28;;;;;;;;;12.75;10.00;;;;;16.00;47.69;98048.91;4925248;28;102481;-86
2021/12/07 08:32:55;;;;;;;;;11.50;10.50;;;;;16.01;48.30;98042.38;4910501;28;102662;-86
2021/12/07 08:35:22;;;;;;;;;15.25;11.75;;;;;16.01;48.20;98045.94;4917166;28;104056;-87
2021/12/07 08:37:54;;;;;;;;;13.00;11.25;;;;;16.03;47.60;98049.22;4907046;28;102153;-86
2021/12/07 08:40:23;;;;;;;;;16.75;10.00;;;;;16.04;47.98;98050.03;4907126;28;103598;-86
2021/12/07 08:42:50;;;;;;;;;13.00;11.25;;;;;16.05;47.61;98051.72;4916859;28;103605;-86
2021/12/07 08:45:18;;;;;;;;;12.75;11.25;;;;;16.06;47.39;98056.09;4922390;28;104077;-86
2021/12/07 08:47:45;;;;;;;;;14.25;12.75;;;;;16.05;47.91;98058.00;4907497;28;102604;-86
2021/12/07 08:50:16;;;;;;;;;11.75;10.00;;;;;16.07;47.74;98061.28;4901397;28;102624;-86
2021/12/07 08:52:43;;;;;;;;;16.00;13.75;;;;;16.07;47.84;98055.03;4911527;28;102404;-86
2021/12/07 09:00:31;;;;;;;;;14.50;10.75;;;;;16.08;47.59;98062.09;4906544;28;103943;-86
2021/12/07 09:02:59;;;;;;;;;16.50;12.25;;;;;16.08;47.23;98060.22;4913261;28;103015;-86
2021/12/07 09:05:26;;;;;;;;;14.00;12.75;;;;;16.07;47.69;98061.28;4914503;28;104626;-86
2021/12/07 09:07:53;;;;;;;;;13.50;12.00;;;;;16.09;47.57;98055.59;4922177;28;102181;-86
2021/12/07 09:10:21;;;;;;;;;14.50;14.00;;;;;16.10;47.29;98064.59;4914814;28;103367;-86
2021/12/07 09:12:48;;;;;;;;;14.50;11.75;;;;;16.10;47.25;98059.97;4913137;28;109879;-86
2021/12/07 09:15:15;;;;;;;;;17.00;11.25;;;;;16.10;47.32;98070.06;4905924;28;103770;-86
2021/12/07 09:17:42;;;;;;;;;15.75;12.25;;;;;16.11;47.07;98060.81;4918937;28;102477;-86
2021/12/07 09:20:11;;;;;;;;;16.25;13.25;;;;;16.10;47.10;98065.44;4904810;28;102098;-85
2021/12/07 09:22:38;;;;;;;;;15.25;13.00;;;;;16.11;47.09;98072.53;4926660;28;111740;-82
2021/12/07 09:25:05;;;;;;;;;13.75;13.00;;;;;16.11;46.89;98052.63;4923454;28;103722;-86
2021/12/07 09:27:32;;;;;;;;;14.25;11.50;;;;;16.11;47.49;98058.06;4907233;28;102626;-86
2021/12/07 09:30:05;;;;;;;;;12.75;10.00;;;;;16.10;47.10;98051.78;4926406;28;102287;-86
2021/12/07 09:32:32;;;;;;;;;14.25;12.50;;;;;16.11;47.36;98055.34;4921883;28;102658;-86
2021/12/07 09:34:59;;;;;;;;;13.25;10.50;;;;;16.11;47.68;98041.72;4888095;28;104220;-86
2021/12/07 09:37:26;;;;;;;;;16.00;13.25;;;;;16.11;47.74;98049.88;4912924;28;102056;-86
2021/12/07 09:39:53;;;;;;;;;9.50;9.25;;;;;16.10;47.80;98048.22;4921390;28;104978;-86
2021/12/07 09:42:20;;;;;;;;;12.00;11.25;;;;;16.09;47.77;98047.41;4902366;28;102747;-86
2021/12/07 09:44:51;;;;;;;;;10.00;9.25;;;;;16.10;47.56;98049.06;4905364;28;104083;-86
2021/12/07 09:47:18;;;;;;;;;10.75;9.25;;;;;16.10;47.66;98034.59;4917563;28;105568;-86
2021/12/07 09:49:45;;;;;;;;;15.75;11.50;;;;;16.10;47.73;98031.88;4907423;28;102714;-86
2021/12/07 09:52:12;;;;;;;;;14.75;13.25;;;;;16.10;47.84;98037.31;4915885;28;102515;-86
2021/12/07 09:54:39;;;;;;;;;16.00;11.00;;;;;16.10;47.75;98040.06;4898616;28;103863;-85
2021/12/07 09:57:06;;;;;;;;;14.00;10.75;;;;;16.10;47.18;98034.59;4916925;28;102585;-86
2021/12/07 09:59:33;;;;;;;;;13.75;12.25;;;;;16.09;47.05;98036.50;4920956;28;104417;-86
2021/12/07 10:02:03;;;;;;;;;13.00;12.75;;;;;16.10;47.21;98048.22;4913131;28;102761;-86
2021/12/07 10:04:30;;;;;;;;;15.00;13.75;;;;;16.08;47.12;98041.13;4916249;28;104859;-86
2021/12/07 10:06:57;;;;;;;;;15.50;13.75;;;;;16.08;47.20;98041.13;4919110;28;102459;-86
2021/12/07 10:09:24;;;;;;;;;13.50;12.00;;;;;16.08;47.49;98035.66;4929776;28;102715;-86
2021/12/07 10:11:52;;;;;;;;;10.25;9.50;;;;;16.08;47.17;98035.66;4913008;28;102637;-86
2021/12/07 10:14:19;;;;;;;;;13.50;11.25;;;;;16.08;47.49;98043.84;4911921;28;104300;-86
2021/12/07 10:16:48;;;;;;;;;12.00;12.00;;;;;16.07;46.93;98035.94;4927251;28;102429;-86
2021/12/07 10:19:35;;;;;;;;;13.25;12.25;;;;;16.08;47.25;98052.03;4914921;28;102468;-86
2021/12/07 10:22:08;;;;;;;;;15.75;12.25;;;;;16.07;47.53;98042.19;4909222;28;102603;-86
2021/12/07 10:24:53;;;;;;;;;14.00;12.00;;;;;16.07;47.09;98042.19;4923890;28;108866;-86
2021/12/07 10:27:43;;;;;;;;;14.50;13.25;;;;;16.06;47.42;98032.38;4927899;28;102581;-86
2021/12/07 10:30:21;;;;;;;;;15.50;12.50;;;;;16.06;47.19;98037.84;4890373;28;103445;-86
2021/12/07 10:33:02;;;;;;;;;15.75;14.75;;;;;16.06;47.30;98048.75;4906989;28;110500;-86
2021/12/07 10:35:33;;;;;;;;;14.25;13.75;;;;;16.06;47.43;98048.75;4927594;28;104927;-86
2021/12/07 10:38:14;;;;;;;;;13.00;11.25;;;;;16.05;47.12;98041.63;4895920;28;102646;-86
2021/12/07 10:41:16;;;;;;;;;13.50;9.75;;;;;16.06;47.03;98042.47;4909716;28;102584;-86
2021/12/07 10:43:44;;;;;;;;;17.25;14.00;;;;;16.05;47.24;98046.25;4906145;28;102592;-86
2021/12/07 10:46:52;;;;;;;;;12.25;12.25;;;;;16.05;46.73;98052.53;4919668;28;103833;-86
2021/12/07 10:49:34;;;;;;;;;16.50;13.75;;;;;16.04;47.46;98050.03;4905512;28;106356;-86
2021/12/07 10:52:13;;;;;;;;;17.00;13.50;;;;;16.04;46.75;98050.88;4917548;28;102396;-86
2021/12/07 10:54:55;;;;;;;;;13.50;11.50;;;;;16.03;47.35;98049.22;4908257;28;102504;-85
2021/12/07 10:57:42;;;;;;;;;15.00;14.25;;;;;16.04;47.58;98063.69;4911867;28;104045;-86
2021/12/07 11:00:16;;;;;;;;;15.25;11.00;;;;;16.04;47.00;98060.97;4908311;28;103724;-86
2021/12/07 11:02:46;;;;;;;;;12.50;10.25;;;;;16.05;47.12;98062.63;4900501;28;105258;-86
2021/12/07 11:05:20;;;;;;;;;14.25;10.75;;;;;16.04;47.26;98053.59;4915359;28;102131;-86
2021/12/07 11:07:48;;;;;;;;;12.00;10.00;;;;;16.05;47.33;98057.16;4919166;28;104291;-86
2021/12/07 11:10:20;;;;;;;;;9.50;9.50;;;;;16.05;46.89;98035.34;4902850;28;103311;-86
2021/12/07 11:15:26;;;;;;;;;17.75;12.50;;;;;16.06;46.82;98048.75;4908327;28;102487;-86
2021/12/07 11:18:03;;;;;;;;;12.50;11.75;;;;;16.05;46.98;98030.72;4918016;28;104109;-86
2021/12/07 11:20:31;;;;;;;;;16.50;15.00;;;;;16.06;46.64;98039.72;4906180;28;102850;-86
2021/12/07 11:23:16;;;;;;;;;12.75;11.00;;;;;16.06;47.05;98046.00;4921275;28;102623;-86
2021/12/07 11:31:12;;;;;;;;;14.25;12.75;;;;;16.06;46.71;98043.28;4912284;28;103463;-85
2021/12/07 11:33:39;;;;;;;;;16.00;14.00;;;;;16.06;46.95;98047.91;4928407;28;104114;-82
2021/12/07 11:36:17;;;;;;;;;10.50;10.25;;;;;16.06;46.65;98043.28;4927673;28;102300;-86
2021/12/07 11:38:44;;;;;;;;;13.75;12.25;;;;;16.06;46.76;98050.63;4909913;28;108917;-86
2021/12/07 11:41:27;;;;;;;;;15.75;14.50;;;;;16.05;46.75;98047.09;4923903;28;102657;-85
2021/12/07 11:43:57;;;;;;;;;10.50;10.25;;;;;16.07;47.14;98049.56;4916733;28;101982;-86
2021/12/07 11:46:25;;;;;;;;;15.50;12.00;;;;;16.06;47.10;98040.56;4896775;28;102431;-86
2021/12/07 11:49:11;;;;;;;;;12.75;10.25;;;;;16.05;47.11;98041.63;4912840;28;104084;-86
2021/12/07 11:51:39;;;;;;;;;14.50;13.25;;;;;16.07;46.48;98047.63;4899400;28;102858;-86
2021/12/07 11:54:06;;;;;;;;;15.25;12.75;;;;;16.07;46.38;98049.56;4914035;28;102214;-86
2021/12/07 11:56:34;;;;;;;;;13.75;11.00;;;;;16.07;46.82;98053.09;4905292;28;106166;-86
2021/12/07 11:59:01;;;;;;;;;10.00;10.00;;;;;16.06;46.68;98056.94;4919392;28;104007;-86
2021/12/07 12:01:42;;;;;;;;;12.75;11.00;;;;;16.06;46.63;98054.19;4892194;28;102205;-86
2021/12/07 12:04:09;;;;;;;;;14.00;12.00;;;;;16.06;46.68;98059.66;4908713;28;103332;-84
2021/12/07 12:06:36;;;;;;;;;12.50;11.00;;;;;16.06;46.80;98059.66;4928255;28;102276;-87
2021/12/07 12:09:04;;;;;;;;;16.00;12.00;;;;;16.05;46.85;98058.00;4907300;28;104338;-86
2021/12/07 12:12:00;;;;;;;;;11.25;8.75;;;;;16.05;47.33;98063.44;4894689;28;102278;-86
2021/12/07 12:14:52;;;;;;;;;11.00;10.50;;;;;16.05;46.51;98057.16;4894077;28;102675;-86
2021/12/07 12:18:04;;;;;;;;;11.00;9.00;;;;;16.05;46.69;98062.63;4893942;28;103918;-86
2021/12/07 12:20:56;;;;;;;;;13.50;11.50;;;;;16.05;47.14;98063.44;4831211;28;108616;-86
2021/12/07 12:23:49;;;;;;;;;10.00;9.00;;;;;16.04;47.18;98055.50;4838018;28;102621;-86
2021/12/07 12:26:23;;;;;;;;;12.25;11.00;;;;;16.04;46.52;98061.78;4858568;28;102639;-86
2021/12/07 12:28:51;;;;;;;;;12.75;10.00;;;;;16.04;47.19;98060.97;4909430;28;102613;-86
2021/12/07 12:31:18;;;;;;;;;14.25;12.25;;;;;16.04;47.06;98066.41;4922827;28;104072;-85
2021/12/07 12:33:54;;;;;;;;;14.75;11.50;;;;;16.03;47.04;98070.22;4917286;28;103414;-86
2021/12/07 12:36:22;;;;;;;;;15.75;11.00;;;;;16.02;47.11;98057.66;4903712;28;103660;-86
2021/12/07 12:39:04;;;;;;;;;12.25;11.00;;;;;16.01;46.56;98065.03;4916727;28;109459;-86
2021/12/07 12:41:31;;;;;;;;;11.25;10.25;;;;;16.02;46.64;98061.22;4910867;28;104252;-86
2021/12/07 12:44:06;;;;;;;;;10.00;10.00;;;;;16.02;47.05;98069.41;4910049;28;105442;-86
2021/12/07 12:46:34;;;;;;;;;12.00;11.00;;;;;16.02;46.71;98072.13;4886530;28;102514;-86
2021/12/07 12:49:05;;;;;;;;;16.25;12.50;;;;;16.01;46.88;98073.19;4928855;28;102702;-86
2021/12/07 12:51:42;;;;;;;;;17.75;15.25;;;;;16.01;46.74;98078.66;4910485;28;104356;-86
2021/12/07 12:54:09;;;;;;;;;16.75;11.25;;;;;16.00;46.51;98085.19;4907663;28;102307;-86
2021/12/07 12:56:39;;;;;;;;;10.00;10.00;;;;;16.01;46.89;98080.56;4908919;28;102477;-86
2021/12/07 12:59:09;;;;;;;;;9.25;8.00;;;;;16.02;46.46;98084.94;4918332;28;103150;-86
2021/12/07 13:01:39;;;;;;;;;13.00;11.00;;;;;16.01;46.61;98089.56;4890808;28;108890;-86
2021/12/07 13:04:09;;;;;;;;;9.50;8.25;;;;;16.02;46.45;98079.47;4921692;28;102837;-86
2021/12/07 13:09:42;;;;;;;;;11.75;9.50;;;;;16.01;46.90;98092.28;4912269;28;102514;-86
2021/12/07 13:12:19;;;;;;;;;13.00;10.50;;;;;16.02;46.45;98093.13;4903294;28;109171;-86
2021/12/07 13:14:49;;;;;;;;;16.00;10.75;;;;;16.02;46.79;98085.78;4926460;28;102384;-86
2021/12/07 13:17:24;;;;;;;;;15.75;12.00;;;;;16.02;46.26;98095.84;4910457;28;102426;-86
2021/12/07 13:20:08;;;;;;;;;11.25;10.25;;;;;16.01;46.55;98099.66;4908499;28;102525;-86
2021/12/07 13:22:43;;;;;;;;;13.25;12.25;;;;;16.01;47.00;98100.47;4902437;28;104047;-86